Seattle, WA (98101)

8:35 PM PDT on March 22, 2017 (GMT -0700)
Downtown Seattle | | Change Station
Active Advisory: Flood Warning

Elev 112 ft 47.61 °N, 122.34 °W | Updated 1 minute ago

Partly Cloudy
Partly Cloudy
46.9 °F
Feels Like 47 °F
N
1.9
Wind Variable Wind from East

Today
High -- | Low -- °F
--% Chance of Precip.
Yesterday
High -- | Low -- °F
Precip. -- in
Pressure 30.01 in
Visibility 10.0 miles
Clouds Few 2500 ft
Scattered Clouds 12000 ft
Windchill 47 °F
Dew Point 39 °F
Humidity 73%
Rainfall 0.00 in
Snow Depth Not available.
7:07 AM 7:25 PM
Waning Crescent, 27% visible
METAR KBFI 230253Z COR 23008G16KT 10SM FEW025 SCT120 08/05 A3001 RMK AO2 SLP163 60000 T00830050 51028
Pressure 30.01 in
Visibility 10.0 miles
Clouds Few 2500 ft
Scattered Clouds 12000 ft
Windchill 47 °F
Dew Point 39 °F
Humidity 73%
Rainfall 0.00 in
Snow Depth Not available.
7:07 AM 7:25 PM
Waning Crescent, 27% visible
METAR KBFI 230253Z COR 23008G16KT 10SM FEW025 SCT120 08/05 A3001 RMK AO2 SLP163 60000 T00830050 51028

Get Your Daily Forecast Email!

Thanks for signing up!

Be on the lookout for a verification email in your inbox.

You'll start receiving severe weather alerts in your inbox..

×

10-Day Weather Forecast

Almanac

Astronomy

Mar. 22, 2017 Rise Set
Actual Time
Civil Twilight
Nautical Twilight
Astronomical Twilight
Moon
Length of Visible Light
Length of Day
Tomorrow will be .
, % of the Moon is Illuminated

Today's Extremes

State Highs State Lows

Community

WunderPhotos

Upload Photos

1,962,540 photos uploaded!

WunderBlog® & News

Nearby

Air Quality

  Air Quality AQ Index Pollutant
Not available.

Snow Depth

Station Depth Elevation

Earthquake Activity

City Distance Mag. Time & Date
Minimum magnitude displayed is 2.5.

Earthquake Activity

City Distance Mag. Time & Date
Minimum magnitude displayed is 2.5.

Coastal Water Temperatures

Place Temperature

Stations

Nearby Weather Stations

Station Location Temp. Windchill Dew Point Humidity Wind Precip. Elev Updated Type
                   

Watches & Warnings

Flood Warning
Issued: 3:10 PM PDT Mar. 22, 2017 – National Weather Service

The Flood Warning continues for
the White River at r street
* from 6 am Monday until Friday morning.
* At 2:45 PM Wednesday the flow was 5280 cfs.
* Flood flow is 5500 cfs.
* Minor flooding is forecast.
* Forecast... the river will remain near the flood flow of 5500 cfs
through Friday afternoon.
* Impact... at 5500 cfs, river flooding is likely to occur near low
bank areas around and downstream of the Stewart street bridge in
the city of Sumner.


Lat... Lon 4721 12214 4724 12219 4719 12223 4724 12230 4732 12226
      4732 12214